sensor_id;sensor_type;location;lat;lon;timestamp;noise_LAeq;noise_LA_min;noise_LA_max;noise_LA01;noise_LA95
48148;Laerm;29352;48.708;9.290;2023-07-28T00:00:11;49.34;44.69;69.26;;
48148;Laerm;29352;48.708;9.290;2023-07-28T00:02:37;49.23;44.31;67.78;;
48148;Laerm;29352;48.708;9.290;2023-07-28T00:05:02;49.42;45.04;53.54;;
48148;Laerm;29352;48.708;9.290;2023-07-28T00:07:28;49.40;44.31;52.22;;
48148;Laerm;29352;48.708;9.290;2023-07-28T00:09:53;49.38;44.69;52.59;;
48148;Laerm;29352;48.708;9.290;2023-07-28T00:12:19;49.45;44.31;52.35;;
48148;Laerm;29352;48.708;9.290;2023-07-28T00:14:44;49.36;44.31;52.41;;
48148;Laerm;29352;48.708;9.290;2023-07-28T00:17:10;49.43;43.90;52.71;;
48148;Laerm;29352;48.708;9.290;2023-07-28T00:19:35;49.41;44.31;52.22;;
48148;Laerm;29352;48.708;9.290;2023-07-28T00:22:01;49.45;42.93;53.09;;
48148;Laerm;29352;48.708;9.290;2023-07-28T00:24:26;49.34;43.44;52.35;;
48148;Laerm;29352;48.708;9.290;2023-07-28T00:26:52;49.14;43.90;52.41;;
48148;Laerm;29352;48.708;9.290;2023-07-28T00:29:17;49.32;44.31;52.09;;
48148;Laerm;29352;48.708;9.290;2023-07-28T00:31:42;49.35;43.90;52.29;;
48148;Laerm;29352;48.708;9.290;2023-07-28T00:34:08;49.43;44.31;52.53;;
48148;Laerm;29352;48.708;9.290;2023-07-28T00:36:33;49.66;44.31;52.88;;
48148;Laerm;29352;48.708;9.290;2023-07-28T00:38:59;49.36;43.44;53.04;;
48148;Laerm;29352;48.708;9.290;2023-07-28T00:41:24;49.13;42.35;53.90;;
48148;Laerm;29352;48.708;9.290;2023-07-28T00:43:49;49.15;43.90;53.44;;
48148;Laerm;29352;48.708;9.290;2023-07-28T00:46:16;48.98;42.93;66.55;;
48148;Laerm;29352;48.708;9.290;2023-07-28T00:48:43;48.96;43.90;51.96;;
48148;Laerm;29352;48.708;9.290;2023-07-28T00:51:11;48.94;42.93;58.80;;
48148;Laerm;29352;48.708;9.290;2023-07-28T00:53:37;48.72;42.35;55.07;;
48148;Laerm;29352;48.708;9.290;2023-07-28T00:56:04;48.79;42.35;59.33;;
48148;Laerm;29352;48.708;9.290;2023-07-28T00:58:31;48.61;42.93;51.82;;
48148;Laerm;29352;48.708;9.290;2023-07-28T01:00:56;48.69;42.35;52.35;;
48148;Laerm;29352;48.708;9.290;2023-07-28T01:03:23;49.26;43.44;73.63;;
48148;Laerm;29352;48.708;9.290;2023-07-28T01:06:15;48.78;42.35;53.29;;
48148;Laerm;29352;48.708;9.290;2023-07-28T01:08:56;48.77;42.35;54.87;;
48148;Laerm;29352;48.708;9.290;2023-07-28T01:11:22;48.70;41.68;52.22;;
48148;Laerm;29352;48.708;9.290;2023-07-28T01:13:48;48.62;42.35;51.82;;
48148;Laerm;29352;48.708;9.290;2023-07-28T01:16:14;48.72;42.93;51.82;;
48148;Laerm;29352;48.708;9.290;2023-07-28T01:18:40;48.70;42.35;52.09;;
48148;Laerm;29352;48.708;9.290;2023-07-28T01:21:14;48.60;42.93;52.09;;
48148;Laerm;29352;48.708;9.290;2023-07-28T01:24:17;48.66;39.92;68.31;;
48148;Laerm;29352;48.708;9.290;2023-07-28T01:26:47;48.62;42.35;52.03;;
48148;Laerm;29352;48.708;9.290;2023-07-28T01:29:14;48.62;40.89;51.61;;
48148;Laerm;29352;48.708;9.290;2023-07-28T01:31:41;48.92;43.44;52.71;;
48148;Laerm;29352;48.708;9.290;2023-07-28T01:34:06;48.80;40.89;52.59;;
48148;Laerm;29352;48.708;9.290;2023-07-28T01:36:32;48.78;42.35;52.53;;
48148;Laerm;29352;48.708;9.290;2023-07-28T01:38:57;48.88;43.44;52.93;;
48148;Laerm;29352;48.708;9.290;2023-07-28T01:41:22;48.92;43.44;54.62;;
48148;Laerm;29352;48.708;9.290;2023-07-28T01:43:48;48.41;41.68;51.89;;
48148;Laerm;29352;48.708;9.290;2023-07-28T01:46:13;48.21;40.89;54.35;;
48148;Laerm;29352;48.708;9.290;2023-07-28T01:48:39;48.44;41.68;51.53;;
48148;Laerm;29352;48.708;9.290;2023-07-28T01:51:04;48.61;40.89;59.29;;
48148;Laerm;29352;48.708;9.290;2023-07-28T01:53:30;48.85;42.35;69.16;;
48148;Laerm;29352;48.708;9.290;2023-07-28T01:55:55;55.12;43.09;90.20;;
48148;Laerm;29352;48.708;9.290;2023-07-28T01:58:20;48.89;42.35;52.03;;
48148;Laerm;29352;48.708;9.290;2023-07-28T02:00:46;48.91;43.90;63.87;;
48148;Laerm;29352;48.708;9.290;2023-07-28T02:03:12;48.95;42.93;52.47;;
48148;Laerm;29352;48.708;9.290;2023-07-28T02:05:37;49.09;42.93;67.34;;
48148;Laerm;29352;48.708;9.290;2023-07-28T02:08:03;61.45;42.35;95.86;;
48148;Laerm;29352;48.708;9.290;2023-07-28T02:10:29;49.59;42.93;78.44;;
48148;Laerm;29352;48.708;9.290;2023-07-28T02:12:55;49.07;42.93;59.56;;
48148;Laerm;29352;48.708;9.290;2023-07-28T02:15:20;50.73;42.93;81.77;;
48148;Laerm;29352;48.708;9.290;2023-07-28T02:17:46;49.17;43.44;53.86;;
48148;Laerm;29352;48.708;9.290;2023-07-28T02:20:11;48.98;43.44;65.16;;
48148;Laerm;29352;48.708;9.290;2023-07-28T02:22:47;48.79;38.67;51.96;;
48148;Laerm;29352;48.708;9.290;2023-07-28T02:25:12;48.97;41.68;52.29;;
48148;Laerm;29352;48.708;9.290;2023-07-28T02:27:38;48.89;42.35;52.03;;
48148;Laerm;29352;48.708;9.290;2023-07-28T02:30:06;49.45;42.35;52.71;;
48148;Laerm;29352;48.708;9.290;2023-07-28T02:32:32;49.16;43.55;52.35;;
48148;Laerm;29352;48.708;9.290;2023-07-28T02:34:58;49.07;43.44;64.04;;
48148;Laerm;29352;48.708;9.290;2023-07-28T02:37:25;48.99;43.44;58.15;;
48148;Laerm;29352;48.708;9.290;2023-07-28T02:39:50;49.10;43.90;53.94;;
48148;Laerm;29352;48.708;9.290;2023-07-28T02:42:16;49.09;38.67;53.49;;
48148;Laerm;29352;48.708;9.290;2023-07-28T02:44:42;49.15;42.93;52.93;;
48148;Laerm;29352;48.708;9.290;2023-07-28T02:47:07;48.92;43.90;51.68;;
48148;Laerm;29352;48.708;9.290;2023-07-28T02:49:33;49.09;44.31;70.77;;
48148;Laerm;29352;48.708;9.290;2023-07-28T02:51:58;48.74;43.90;51.68;;
48148;Laerm;29352;48.708;9.290;2023-07-28T02:54:24;48.75;42.93;52.93;;
48148;Laerm;29352;48.708;9.290;2023-07-28T02:56:51;48.93;43.44;52.16;;
48148;Laerm;29352;48.708;9.290;2023-07-28T02:59:16;48.93;43.97;51.68;;
48148;Laerm;29352;48.708;9.290;2023-07-28T03:01:42;48.71;43.44;51.61;;
48148;Laerm;29352;48.708;9.290;2023-07-28T03:04:07;48.59;43.44;51.68;;
48148;Laerm;29352;48.708;9.290;2023-07-28T03:06:32;50.76;43.90;58.60;;
48148;Laerm;29352;48.708;9.290;2023-07-28T03:08:59;50.33;44.69;54.51;;
48148;Laerm;29352;48.708;9.290;2023-07-28T03:11:25;49.97;45.36;52.47;;
48148;Laerm;29352;48.708;9.290;2023-07-28T03:13:50;49.45;44.31;69.80;;
48148;Laerm;29352;48.708;9.290;2023-07-28T03:16:16;48.73;41.68;52.29;;
48148;Laerm;29352;48.708;9.290;2023-07-28T03:18:41;48.51;43.44;53.04;;
48148;Laerm;29352;48.708;9.290;2023-07-28T03:21:09;48.64;43.90;51.96;;
48148;Laerm;29352;48.708;9.290;2023-07-28T03:23:34;48.69;41.68;51.61;;
48148;Laerm;29352;48.708;9.290;2023-07-28T03:26:00;48.53;42.35;53.86;;
48148;Laerm;29352;48.708;9.290;2023-07-28T03:28:25;48.74;42.93;64.12;;
48148;Laerm;29352;48.708;9.290;2023-07-28T03:30:51;48.43;42.93;52.35;;
48148;Laerm;29352;48.708;9.290;2023-07-28T03:33:16;48.27;42.93;51.46;;
48148;Laerm;29352;48.708;9.290;2023-07-28T03:35:41;48.27;43.44;51.96;;
48148;Laerm;29352;48.708;9.290;2023-07-28T03:38:07;48.32;42.35;52.09;;
48148;Laerm;29352;48.708;9.290;2023-07-28T03:40:33;48.37;42.35;51.38;;
48148;Laerm;29352;48.708;9.290;2023-07-28T03:42:59;48.39;42.35;51.30;;
48148;Laerm;29352;48.708;9.290;2023-07-28T03:45:24;48.22;42.93;51.22;;
48148;Laerm;29352;48.708;9.290;2023-07-28T03:47:50;48.31;42.93;53.81;;
48148;Laerm;29352;48.708;9.290;2023-07-28T03:50:15;48.29;42.35;51.19;;
48148;Laerm;29352;48.708;9.290;2023-07-28T03:52:41;48.25;42.35;50.89;;
48148;Laerm;29352;48.708;9.290;2023-07-28T03:55:06;48.32;42.35;51.22;;
48148;Laerm;29352;48.708;9.290;2023-07-28T03:57:32;48.31;42.93;51.14;;
48148;Laerm;29352;48.708;9.290;2023-07-28T03:59:57;48.39;44.31;51.89;;
48148;Laerm;29352;48.708;9.290;2023-07-28T04:02:23;48.26;42.93;51.46;;
48148;Laerm;29352;48.708;9.290;2023-07-28T04:04:54;48.24;42.35;52.53;;
48148;Laerm;29352;48.708;9.290;2023-07-28T04:07:20;48.34;42.93;51.46;;
48148;Laerm;29352;48.708;9.290;2023-07-28T04:09:45;48.81;44.31;51.89;;
48148;Laerm;29352;48.708;9.290;2023-07-28T04:12:11;48.72;43.44;51.68;;
48148;Laerm;29352;48.708;9.290;2023-07-28T04:14:36;48.68;43.44;51.48;;
48148;Laerm;29352;48.708;9.290;2023-07-28T04:17:02;48.67;43.90;51.22;;
48148;Laerm;29352;48.708;9.290;2023-07-28T04:19:28;48.63;41.68;51.75;;
48148;Laerm;29352;48.708;9.290;2023-07-28T04:21:56;48.75;44.31;52.98;;
48148;Laerm;29352;48.708;9.290;2023-07-28T04:24:21;49.14;44.69;51.96;;
48148;Laerm;29352;48.708;9.290;2023-07-28T04:26:47;49.20;45.66;51.68;;
48148;Laerm;29352;48.708;9.290;2023-07-28T04:29:14;49.46;45.66;52.35;;
48148;Laerm;29352;48.708;9.290;2023-07-28T04:31:39;49.40;45.04;51.96;;
48148;Laerm;29352;48.708;9.290;2023-07-28T04:34:05;49.23;45.66;51.68;;
48148;Laerm;29352;48.708;9.290;2023-07-28T04:36:30;50.10;46.69;52.90;;
48148;Laerm;29352;48.708;9.290;2023-07-28T04:38:56;50.71;46.91;53.24;;
48148;Laerm;29352;48.708;9.290;2023-07-28T04:41:21;49.82;46.69;53.58;;
48148;Laerm;29352;48.708;9.290;2023-07-28T04:43:46;49.64;46.20;51.82;;
48148;Laerm;29352;48.708;9.290;2023-07-28T04:46:12;49.79;46.91;55.72;;
48148;Laerm;29352;48.708;9.290;2023-07-28T04:48:37;50.26;46.91;56.82;;
48148;Laerm;29352;48.708;9.290;2023-07-28T04:51:03;49.77;46.20;52.35;;
48148;Laerm;29352;48.708;9.290;2023-07-28T04:53:28;49.80;46.69;51.53;;
48148;Laerm;29352;48.708;9.290;2023-07-28T04:55:54;49.78;46.91;51.89;;
48148;Laerm;29352;48.708;9.290;2023-07-28T04:58:19;49.86;47.12;51.82;;
48148;Laerm;29352;48.708;9.290;2023-07-28T05:00:44;49.82;46.91;51.89;;
48148;Laerm;29352;48.708;9.290;2023-07-28T05:03:10;49.84;47.32;51.89;;
48148;Laerm;29352;48.708;9.290;2023-07-28T05:05:35;49.87;47.32;54.73;;
48148;Laerm;29352;48.708;9.290;2023-07-28T05:08:01;49.99;47.12;52.09;;
48148;Laerm;29352;48.708;9.290;2023-07-28T05:10:26;50.11;47.32;52.16;;
48148;Laerm;29352;48.708;9.290;2023-07-28T05:12:51;49.97;47.32;52.03;;
48148;Laerm;29352;48.708;9.290;2023-07-28T05:15:17;50.05;47.12;52.47;;
48148;Laerm;29352;48.708;9.290;2023-07-28T05:17:42;50.06;46.91;52.16;;
48148;Laerm;29352;48.708;9.290;2023-07-28T05:20:08;49.98;47.12;52.09;;
48148;Laerm;29352;48.708;9.290;2023-07-28T05:22:34;49.91;47.52;52.09;;
48148;Laerm;29352;48.708;9.290;2023-07-28T05:24:59;49.88;47.52;51.96;;
48148;Laerm;29352;48.708;9.290;2023-07-28T05:27:25;49.89;47.12;51.89;;
48148;Laerm;29352;48.708;9.290;2023-07-28T05:29:50;50.11;47.12;54.92;;
48148;Laerm;29352;48.708;9.290;2023-07-28T05:32:16;50.03;47.12;52.65;;
48148;Laerm;29352;48.708;9.290;2023-07-28T05:34:43;50.01;47.12;52.35;;
48148;Laerm;29352;48.708;9.290;2023-07-28T05:37:08;50.02;46.91;52.16;;
48148;Laerm;29352;48.708;9.290;2023-07-28T05:39:34;50.01;46.69;52.59;;
48148;Laerm;29352;48.708;9.290;2023-07-28T05:41:59;49.91;47.12;51.75;;
48148;Laerm;29352;48.708;9.290;2023-07-28T05:44:25;50.00;47.12;52.53;;
48148;Laerm;29352;48.708;9.290;2023-07-28T05:46:50;50.12;46.91;52.29;;
48148;Laerm;29352;48.708;9.290;2023-07-28T05:49:16;50.05;46.45;52.06;;
48148;Laerm;29352;48.708;9.290;2023-07-28T05:51:41;50.00;46.91;51.96;;
48148;Laerm;29352;48.708;9.290;2023-07-28T05:54:06;50.04;47.12;52.47;;
48148;Laerm;29352;48.708;9.290;2023-07-28T05:56:32;49.95;47.12;52.03;;
48148;Laerm;29352;48.708;9.290;2023-07-28T05:58:57;50.03;46.91;51.96;;
48148;Laerm;29352;48.708;9.290;2023-07-28T06:01:23;50.03;47.12;51.75;;
48148;Laerm;29352;48.708;9.290;2023-07-28T06:03:50;50.09;47.32;53.54;;
48148;Laerm;29352;48.708;9.290;2023-07-28T06:06:17;50.03;47.12;52.35;;
48148;Laerm;29352;48.708;9.290;2023-07-28T06:08:44;50.07;47.32;52.16;;
48148;Laerm;29352;48.708;9.290;2023-07-28T06:11:09;50.09;46.69;52.35;;
48148;Laerm;29352;48.708;9.290;2023-07-28T06:13:34;50.11;47.32;52.41;;
48148;Laerm;29352;48.708;9.290;2023-07-28T06:16:00;50.58;47.32;53.09;;
48148;Laerm;29352;48.708;9.290;2023-07-28T06:18:25;50.49;47.52;52.59;;
48148;Laerm;29352;48.708;9.290;2023-07-28T06:20:51;50.85;47.52;54.07;;
48148;Laerm;29352;48.708;9.290;2023-07-28T06:23:16;50.75;47.52;53.68;;
48148;Laerm;29352;48.708;9.290;2023-07-28T06:25:42;50.33;47.12;52.71;;
48148;Laerm;29352;48.708;9.290;2023-07-28T06:28:12;50.42;47.12;52.29;;
48148;Laerm;29352;48.708;9.290;2023-07-28T06:30:39;50.40;47.88;52.22;;
48148;Laerm;29352;48.708;9.290;2023-07-28T06:33:08;50.41;47.53;52.22;;
48148;Laerm;29352;48.708;9.290;2023-07-28T06:35:34;50.45;47.52;52.35;;
48148;Laerm;29352;48.708;9.290;2023-07-28T06:38:01;50.43;47.52;52.22;;
48148;Laerm;29352;48.708;9.290;2023-07-28T06:40:26;50.40;47.32;52.47;;
48148;Laerm;29352;48.708;9.290;2023-07-28T06:42:52;50.45;47.70;52.35;;
48148;Laerm;29352;48.708;9.290;2023-07-28T06:45:17;50.33;47.12;52.29;;
48148;Laerm;29352;48.708;9.290;2023-07-28T06:47:43;50.27;47.12;52.71;;
48148;Laerm;29352;48.708;9.290;2023-07-28T06:50:10;50.18;47.52;52.35;;
48148;Laerm;29352;48.708;9.290;2023-07-28T06:52:36;50.22;47.70;52.03;;
48148;Laerm;29352;48.708;9.290;2023-07-28T06:55:02;50.17;47.12;52.24;;
48148;Laerm;29352;48.708;9.290;2023-07-28T06:57:28;50.16;46.69;52.30;;
48148;Laerm;29352;48.708;9.290;2023-07-28T06:59:54;50.34;47.70;65.47;;
48148;Laerm;29352;48.708;9.290;2023-07-28T07:02:19;50.51;48.37;52.35;;
48148;Laerm;29352;48.708;9.290;2023-07-28T07:04:45;50.40;47.70;52.35;;
48148;Laerm;29352;48.708;9.290;2023-07-28T07:07:10;50.25;47.70;52.88;;
48148;Laerm;29352;48.708;9.290;2023-07-28T07:09:35;50.31;47.52;52.53;;
48148;Laerm;29352;48.708;9.290;2023-07-28T07:12:02;50.33;47.70;52.42;;
48148;Laerm;29352;48.708;9.290;2023-07-28T07:14:27;50.31;47.32;52.29;;
48148;Laerm;29352;48.708;9.290;2023-07-28T07:16:52;50.29;47.70;52.41;;
48148;Laerm;29352;48.708;9.290;2023-07-28T07:19:18;50.09;47.52;52.03;;
48148;Laerm;29352;48.708;9.290;2023-07-28T07:21:44;50.28;47.70;52.59;;
48148;Laerm;29352;48.708;9.290;2023-07-28T07:24:10;50.27;47.32;62.56;;
48148;Laerm;29352;48.708;9.290;2023-07-28T07:26:39;50.30;47.70;52.13;;
48148;Laerm;29352;48.708;9.290;2023-07-28T07:29:05;50.34;47.52;52.29;;
48148;Laerm;29352;48.708;9.290;2023-07-28T07:31:31;50.25;47.52;52.03;;
48148;Laerm;29352;48.708;9.290;2023-07-28T07:33:56;50.23;47.88;52.03;;
48148;Laerm;29352;48.708;9.290;2023-07-28T07:36:22;50.14;47.70;52.29;;
48148;Laerm;29352;48.708;9.290;2023-07-28T07:38:48;50.12;47.70;52.41;;
48148;Laerm;29352;48.708;9.290;2023-07-28T07:41:15;50.16;48.05;55.20;;
48148;Laerm;29352;48.708;9.290;2023-07-28T07:43:45;50.18;47.12;51.96;;
48148;Laerm;29352;48.708;9.290;2023-07-28T07:46:10;50.23;48.05;51.82;;
48148;Laerm;29352;48.708;9.290;2023-07-28T07:48:36;50.64;48.32;55.80;;
48148;Laerm;29352;48.708;9.290;2023-07-28T07:51:01;51.69;49.08;58.64;;
48148;Laerm;29352;48.708;9.290;2023-07-28T07:53:27;50.79;48.67;57.68;;
48148;Laerm;29352;48.708;9.290;2023-07-28T07:55:52;50.95;48.81;55.36;;
48148;Laerm;29352;48.708;9.290;2023-07-28T07:58:18;51.33;48.95;57.48;;
48148;Laerm;29352;48.708;9.290;2023-07-28T08:00:43;51.07;48.47;53.94;;
48148;Laerm;29352;48.708;9.290;2023-07-28T08:03:09;51.10;48.37;53.14;;
48148;Laerm;29352;48.708;9.290;2023-07-28T08:05:35;50.60;48.37;52.41;;
48148;Laerm;29352;48.708;9.290;2023-07-28T08:08:01;50.48;48.21;52.22;;
48148;Laerm;29352;48.708;9.290;2023-07-28T08:10:27;50.75;48.37;53.24;;
48148;Laerm;29352;48.708;9.290;2023-07-28T08:12:54;50.87;48.67;52.65;;
48148;Laerm;29352;48.708;9.290;2023-07-28T08:15:20;50.92;48.52;52.76;;
48148;Laerm;29352;48.708;9.290;2023-07-28T08:17:45;50.82;48.37;52.71;;
48148;Laerm;29352;48.708;9.290;2023-07-28T08:20:12;50.74;48.81;52.76;;
48148;Laerm;29352;48.708;9.290;2023-07-28T08:22:38;50.68;48.52;52.22;;
48148;Laerm;29352;48.708;9.290;2023-07-28T08:25:05;50.67;48.52;54.76;;
48148;Laerm;29352;48.708;9.290;2023-07-28T08:27:30;50.58;48.67;55.17;;
48148;Laerm;29352;48.708;9.290;2023-07-28T08:29:56;50.49;48.67;56.52;;
48148;Laerm;29352;48.708;9.290;2023-07-28T08:32:21;50.92;48.99;57.44;;
48148;Laerm;29352;48.708;9.290;2023-07-28T08:34:47;50.63;49.08;56.43;;
48148;Laerm;29352;48.708;9.290;2023-07-28T08:37:13;50.86;49.08;58.85;;
48148;Laerm;29352;48.708;9.290;2023-07-28T08:39:39;51.25;49.58;52.65;;
48148;Laerm;29352;48.708;9.290;2023-07-28T08:42:05;51.71;50.23;52.98;;
48148;Laerm;29352;48.708;9.290;2023-07-28T08:44:33;51.79;50.33;52.88;;
48148;Laerm;29352;48.708;9.290;2023-07-28T08:47:02;51.83;50.43;52.93;;
48148;Laerm;29352;48.708;9.290;2023-07-28T08:49:27;51.94;50.43;53.19;;
48148;Laerm;29352;48.708;9.290;2023-07-28T08:52:00;51.99;50.71;53.09;;
48148;Laerm;29352;48.708;9.290;2023-07-28T08:54:26;52.28;50.98;53.34;;
48148;Laerm;29352;48.708;9.290;2023-07-28T08:56:51;52.32;51.22;53.39;;
48148;Laerm;29352;48.708;9.290;2023-07-28T08:59:26;52.33;50.62;53.55;;
48148;Laerm;29352;48.708;9.290;2023-07-28T09:01:55;52.25;50.80;54.47;;
48148;Laerm;29352;48.708;9.290;2023-07-28T09:04:22;52.19;50.98;54.47;;
48148;Laerm;29352;48.708;9.290;2023-07-28T09:06:50;52.18;50.89;53.19;;
48148;Laerm;29352;48.708;9.290;2023-07-28T09:09:21;52.38;50.98;53.58;;
48148;Laerm;29352;48.708;9.290;2023-07-28T09:11:54;52.92;51.81;54.03;;
48148;Laerm;29352;48.708;9.290;2023-07-28T09:14:21;53.38;52.03;54.51;;
48148;Laerm;29352;48.708;9.290;2023-07-28T09:16:49;53.51;52.29;54.76;;
48148;Laerm;29352;48.708;9.290;2023-07-28T09:19:15;53.79;52.53;54.90;;
48148;Laerm;29352;48.708;9.290;2023-07-28T09:21:44;53.56;52.29;54.59;;
48148;Laerm;29352;48.708;9.290;2023-07-28T09:24:13;53.70;52.53;54.69;;
48148;Laerm;29352;48.708;9.290;2023-07-28T09:26:43;53.63;52.41;54.65;;
48148;Laerm;29352;48.708;9.290;2023-07-28T09:29:19;53.56;52.53;54.51;;
48148;Laerm;29352;48.708;9.290;2023-07-28T09:31:47;53.07;52.03;54.03;;
48148;Laerm;29352;48.708;9.290;2023-07-28T09:34:27;52.88;51.68;54.11;;
48148;Laerm;29352;48.708;9.290;2023-07-28T09:36:57;52.66;51.38;53.63;;
48148;Laerm;29352;48.708;9.290;2023-07-28T09:39:24;52.46;51.14;53.63;;
48148;Laerm;29352;48.708;9.290;2023-07-28T09:41:50;52.20;50.89;53.24;;
48148;Laerm;29352;48.708;9.290;2023-07-28T09:44:16;52.03;50.80;63.42;;
48148;Laerm;29352;48.708;9.290;2023-07-28T09:46:54;52.00;50.71;55.11;;
48148;Laerm;29352;48.708;9.290;2023-07-28T09:49:37;52.10;50.80;53.24;;
48148;Laerm;29352;48.708;9.290;2023-07-28T09:52:09;52.12;50.89;58.54;;
48148;Laerm;29352;48.708;9.290;2023-07-28T09:54:45;52.19;50.71;53.34;;
48148;Laerm;29352;48.708;9.290;2023-07-28T09:57:20;52.48;51.22;53.81;;
48148;Laerm;29352;48.708;9.290;2023-07-28T09:59:47;52.69;51.53;53.81;;
48148;Laerm;29352;48.708;9.290;2023-07-28T10:02:14;52.66;51.46;53.72;;
48148;Laerm;29352;48.708;9.290;2023-07-28T10:04:40;52.70;51.46;53.81;;
48148;Laerm;29352;48.708;9.290;2023-07-28T10:07:08;53.16;51.96;54.27;;
48148;Laerm;29352;48.708;9.290;2023-07-28T10:09:35;52.99;51.75;53.94;;
48148;Laerm;29352;48.708;9.290;2023-07-28T10:12:02;52.77;51.61;53.86;;
48148;Laerm;29352;48.708;9.290;2023-07-28T10:14:33;52.56;51.30;53.54;;
48148;Laerm;29352;48.708;9.290;2023-07-28T10:17:01;52.42;51.22;53.58;;
48148;Laerm;29352;48.708;9.290;2023-07-28T10:19:36;52.36;51.06;53.39;;
48148;Laerm;29352;48.708;9.290;2023-07-28T10:22:08;52.28;51.14;53.44;;
48148;Laerm;29352;48.708;9.290;2023-07-28T10:25:00;52.29;50.89;53.39;;
48148;Laerm;29352;48.708;9.290;2023-07-28T10:27:36;52.42;51.22;53.54;;
48148;Laerm;29352;48.708;9.290;2023-07-28T10:30:09;52.33;51.06;53.44;;
48148;Laerm;29352;48.708;9.290;2023-07-28T10:32:55;52.34;51.22;53.44;;
48148;Laerm;29352;48.708;9.290;2023-07-28T10:35:26;52.28;51.14;53.34;;
48148;Laerm;29352;48.708;9.290;2023-07-28T10:37:57;52.31;50.89;58.36;;
48148;Laerm;29352;48.708;9.290;2023-07-28T10:42:57;52.15;50.89;53.29;;
48148;Laerm;29352;48.708;9.290;2023-07-28T10:45:26;52.15;50.98;53.19;;
48148;Laerm;29352;48.708;9.290;2023-07-28T10:47:54;52.09;50.80;53.24;;
48148;Laerm;29352;48.708;9.290;2023-07-28T10:50:28;52.10;50.71;53.29;;
48148;Laerm;29352;48.708;9.290;2023-07-28T10:52:54;52.28;50.98;56.73;;
48148;Laerm;29352;48.708;9.290;2023-07-28T10:55:23;52.27;51.06;53.34;;
48148;Laerm;29352;48.708;9.290;2023-07-28T10:57:51;52.38;50.98;53.34;;
48148;Laerm;29352;48.708;9.290;2023-07-28T11:00:19;52.44;51.22;53.58;;
48148;Laerm;29352;48.708;9.290;2023-07-28T11:02:47;52.50;51.30;53.49;;
48148;Laerm;29352;48.708;9.290;2023-07-28T11:05:27;52.62;51.30;53.77;;
48148;Laerm;29352;48.708;9.290;2023-07-28T11:07:58;52.78;51.53;53.90;;
48148;Laerm;29352;48.708;9.290;2023-07-28T11:10:29;52.90;51.68;53.99;;
48148;Laerm;29352;48.708;9.290;2023-07-28T11:12:59;52.96;51.82;53.99;;
48148;Laerm;29352;48.708;9.290;2023-07-28T11:15:26;53.05;51.89;54.23;;
48148;Laerm;29352;48.708;9.290;2023-07-28T11:17:52;53.26;52.06;54.39;;
48148;Laerm;29352;48.708;9.290;2023-07-28T11:20:24;53.41;52.41;54.58;;
48148;Laerm;29352;48.708;9.290;2023-07-28T11:22:55;53.45;52.47;54.35;;
48148;Laerm;29352;48.708;9.290;2023-07-28T11:25:27;53.62;52.35;54.97;;
48148;Laerm;29352;48.708;9.290;2023-07-28T11:27:54;53.63;52.41;54.54;;
48148;Laerm;29352;48.708;9.290;2023-07-28T11:30:22;53.62;52.58;54.65;;
48148;Laerm;29352;48.708;9.290;2023-07-28T11:32:51;53.58;52.59;54.69;;
48148;Laerm;29352;48.708;9.290;2023-07-28T11:35:20;53.69;52.71;54.54;;
48148;Laerm;29352;48.708;9.290;2023-07-28T11:37:50;53.82;52.82;54.90;;
48148;Laerm;29352;48.708;9.290;2023-07-28T11:40:19;53.80;52.59;54.83;;
48148;Laerm;29352;48.708;9.290;2023-07-28T11:42:53;53.65;52.53;54.62;;
48148;Laerm;29352;48.708;9.290;2023-07-28T11:45:21;53.60;52.53;54.62;;
48148;Laerm;29352;48.708;9.290;2023-07-28T11:48:05;53.56;52.47;54.51;;
48148;Laerm;29352;48.708;9.290;2023-07-28T11:50:40;53.35;52.29;54.35;;
48148;Laerm;29352;48.708;9.290;2023-07-28T11:53:08;53.15;52.03;54.19;;
48148;Laerm;29352;48.708;9.290;2023-07-28T11:55:38;52.97;51.82;53.90;;
48148;Laerm;29352;48.708;9.290;2023-07-28T11:58:06;52.84;51.82;53.81;;
48148;Laerm;29352;48.708;9.290;2023-07-28T12:00:37;52.66;51.53;53.58;;
48148;Laerm;29352;48.708;9.290;2023-07-28T12:03:11;52.74;51.53;53.81;;
48148;Laerm;29352;48.708;9.290;2023-07-28T12:06:02;52.71;51.68;53.90;;
48148;Laerm;29352;48.708;9.290;2023-07-28T12:08:37;52.64;51.38;53.68;;
48148;Laerm;29352;48.708;9.290;2023-07-28T12:11:03;52.55;51.14;53.63;;
48148;Laerm;29352;48.708;9.290;2023-07-28T12:13:28;52.39;51.30;53.39;;
48148;Laerm;29352;48.708;9.290;2023-07-28T12:15:54;52.07;50.62;53.34;;
48148;Laerm;29352;48.708;9.290;2023-07-28T12:18:20;51.87;50.53;53.19;;
48148;Laerm;29352;48.708;9.290;2023-07-28T12:20:53;51.82;50.63;53.34;;
48148;Laerm;29352;48.708;9.290;2023-07-28T12:23:21;51.97;50.53;64.11;;
48148;Laerm;29352;48.708;9.290;2023-07-28T12:25:48;51.78;50.33;56.40;;
48148;Laerm;29352;48.708;9.290;2023-07-28T12:28:14;51.88;50.62;55.77;;
48148;Laerm;29352;48.708;9.290;2023-07-28T12:30:39;51.83;50.43;54.54;;
48148;Laerm;29352;48.708;9.290;2023-07-28T12:33:06;51.86;50.53;53.19;;
48148;Laerm;29352;48.708;9.290;2023-07-28T12:35:33;51.91;50.71;62.14;;
48148;Laerm;29352;48.708;9.290;2023-07-28T12:38:04;52.06;50.53;65.21;;
48148;Laerm;29352;48.708;9.290;2023-07-28T12:40:32;52.48;50.43;65.01;;
48148;Laerm;29352;48.708;9.290;2023-07-28T12:43:00;52.14;50.80;56.57;;
48148;Laerm;29352;48.708;9.290;2023-07-28T12:45:26;52.12;50.71;54.62;;
48148;Laerm;29352;48.708;9.290;2023-07-28T12:47:52;52.11;50.89;55.75;;
48148;Laerm;29352;48.708;9.290;2023-07-28T12:50:22;52.09;50.71;53.90;;
48148;Laerm;29352;48.708;9.290;2023-07-28T12:52:49;52.17;50.89;53.49;;
48148;Laerm;29352;48.708;9.290;2023-07-28T12:55:16;52.27;50.89;53.37;;
48148;Laerm;29352;48.708;9.290;2023-07-28T12:57:43;52.26;51.14;53.29;;
48148;Laerm;29352;48.708;9.290;2023-07-28T13:00:10;52.40;51.30;53.63;;
48148;Laerm;29352;48.708;9.290;2023-07-28T13:02:40;52.41;51.22;53.49;;
48148;Laerm;29352;48.708;9.290;2023-07-28T13:05:09;52.43;51.14;53.54;;
48148;Laerm;29352;48.708;9.290;2023-07-28T13:07:39;52.44;51.14;53.86;;
48148;Laerm;29352;48.708;9.290;2023-07-28T13:10:08;52.41;51.22;53.86;;
48148;Laerm;29352;48.708;9.290;2023-07-28T13:12:36;52.40;51.22;53.44;;
48148;Laerm;29352;48.708;9.290;2023-07-28T13:15:02;52.40;50.98;53.44;;
48148;Laerm;29352;48.708;9.290;2023-07-28T13:17:28;52.27;50.89;54.15;;
48148;Laerm;29352;48.708;9.290;2023-07-28T13:19:53;52.22;50.89;53.29;;
48148;Laerm;29352;48.708;9.290;2023-07-28T13:22:19;52.28;50.80;53.39;;
48148;Laerm;29352;48.708;9.290;2023-07-28T13:24:44;52.25;51.14;53.24;;
48148;Laerm;29352;48.708;9.290;2023-07-28T13:27:10;52.12;50.80;53.14;;
48148;Laerm;29352;48.708;9.290;2023-07-28T13:29:36;52.11;50.80;53.09;;
48148;Laerm;29352;48.708;9.290;2023-07-28T13:32:01;52.05;50.33;53.24;;
48148;Laerm;29352;48.708;9.290;2023-07-28T13:34:27;52.08;50.80;53.19;;
48148;Laerm;29352;48.708;9.290;2023-07-28T13:36:55;52.06;50.71;53.19;;
48148;Laerm;29352;48.708;9.290;2023-07-28T13:39:21;52.02;50.89;53.09;;
48148;Laerm;29352;48.708;9.290;2023-07-28T13:41:47;52.00;50.79;53.24;;
48148;Laerm;29352;48.708;9.290;2023-07-28T13:44:12;51.93;50.43;52.98;;
48148;Laerm;29352;48.708;9.290;2023-07-28T13:46:38;51.80;50.43;52.88;;